Time;durP1;ratioP1;P1;durP2;ratioP2;P2;SDS_P1;SDS_P2;PMS_P1;PMS_P2;Temp;Humidity;BMP_temperature;BMP_pressure;BME280_temperature;BME280_humidity;BME280_pressure;Samples;Min_cycle;Max_cycle;Signal;HPM_P1;HPM_P2
2022/11/25 00:00:24;;;;;;;4.00;1.63;;;20.70;62.70;;;;;;5017884;27;87490;-81
2022/11/25 00:02:50;;;;;;;3.60;1.83;;;20.70;62.60;;;;;;5015675;27;88289;-81
2022/11/25 00:05:15;;;;;;;4.43;2.00;;;20.70;62.90;;;;;;5018788;28;88922;-81
2022/11/25 00:07:41;;;;;;;2.95;1.85;;;20.70;62.70;;;;;;5017155;27;88054;-81
2022/11/25 00:10:07;;;;;;;2.65;1.73;;;20.70;63.70;;;;;;5017762;28;87220;-81
2022/11/25 00:12:33;;;;;;;4.05;1.83;;;20.70;63.10;;;;;;5017292;28;88463;-81
2022/11/25 00:14:58;;;;;;;5.00;1.92;;;20.60;63.00;;;;;;5015227;27;88921;-81
2022/11/25 00:17:24;;;;;;;3.30;1.65;;;20.70;63.10;;;;;;5017859;27;87798;-81
2022/11/25 00:19:49;;;;;;;4.15;2.03;;;20.70;62.80;;;;;;5018120;28;87406;-81
2022/11/25 00:22:16;;;;;;;3.70;1.70;;;20.60;62.80;;;;;;5017997;27;86984;-81
2022/11/25 00:24:41;;;;;;;3.42;1.67;;;20.60;62.70;;;;;;5018554;27;87319;-81
2022/11/25 00:27:07;;;;;;;6.00;2.20;;;20.60;62.90;;;;;;5015996;27;87854;-81
2022/11/25 00:29:33;;;;;;;4.05;1.95;;;20.60;62.90;;;;;;5014811;28;89100;-81
2022/11/25 00:31:58;;;;;;;3.45;1.77;;;20.60;62.90;;;;;;5015360;28;86948;-82
2022/11/25 00:34:29;;;;;;;5.32;2.17;;;20.60;62.90;;;;;;5015337;27;87255;-81
2022/11/25 00:36:55;;;;;;;2.63;1.55;;;20.60;62.80;;;;;;5017078;28;88361;-81
2022/11/25 00:39:23;;;;;;;3.42;1.90;;;20.50;62.90;;;;;;5014422;28;88707;-81
2022/11/25 00:44:39;;;;;;;4.30;2.20;;;20.60;63.00;;;;;;5015089;28;87562;-81
2022/11/25 00:47:11;;;;;;;4.30;2.05;;;20.50;62.90;;;;;;5014499;27;88281;-81
2022/11/25 00:49:38;;;;;;;4.80;1.77;;;20.60;63.10;;;;;;5015116;27;87861;-81
2022/11/25 00:52:04;;;;;;;4.95;1.65;;;20.50;62.90;;;;;;5016622;28;87042;-81
2022/11/25 00:54:30;;;;;;;2.92;1.67;;;20.50;62.90;;;;;;5016437;28;86586;-81
2022/11/25 00:56:56;;;;;;;3.95;1.70;;;20.50;63.00;;;;;;5017957;27;88174;-81
2022/11/25 00:59:22;;;;;;;4.85;2.20;;;20.50;62.90;;;;;;5014303;28;88284;-81
2022/11/25 01:01:48;;;;;;;4.00;2.05;;;20.50;63.80;;;;;;5014576;27;87832;-81
2022/11/25 01:04:14;;;;;;;4.03;2.15;;;20.50;63.10;;;;;;5016410;28;88154;-81
2022/11/25 01:06:40;;;;;;;2.30;1.65;;;20.50;62.90;;;;;;5016695;27;92404;-81
2022/11/25 01:09:06;;;;;;;3.35;1.77;;;20.40;62.80;;;;;;5016424;27;87903;-81
2022/11/25 01:11:32;;;;;;;3.42;1.70;;;20.40;63.00;;;;;;5016361;27;87543;-81
2022/11/25 01:13:58;;;;;;;3.10;1.40;;;20.50;63.00;;;;;;5016888;27;87620;-81
2022/11/25 01:16:24;;;;;;;3.25;1.67;;;20.40;63.10;;;;;;5014473;27;87722;-81
2022/11/25 01:18:51;;;;;;;4.75;1.88;;;20.40;63.00;;;;;;5017162;28;88097;-81
2022/11/25 01:21:18;;;;;;;3.22;1.67;;;20.40;63.10;;;;;;5014922;27;87386;-81
2022/11/25 01:23:44;;;;;;;3.42;1.70;;;20.40;63.30;;;;;;5016654;27;88141;-81
2022/11/25 01:26:12;;;;;;;2.17;1.25;;;20.40;63.30;;;;;;5015778;27;89432;-81
2022/11/25 01:28:38;;;;;;;2.55;1.55;;;20.40;63.30;;;;;;5014950;27;87411;-81
2022/11/25 01:31:13;;;;;;;3.25;1.77;;;20.40;63.30;;;;;;5017244;28;87455;-81
2022/11/25 01:33:40;;;;;;;5.57;1.92;;;20.40;63.00;;;;;;5016063;27;88197;-81
2022/11/25 01:36:09;;;;;;;3.83;1.67;;;20.40;63.10;;;;;;5016523;27;87540;-81
2022/11/25 01:38:35;;;;;;;3.65;1.73;;;20.40;63.00;;;;;;5013141;28;90668;-81
2022/11/25 01:41:02;;;;;;;3.10;1.52;;;20.40;63.20;;;;;;5015747;27;87252;-82
2022/11/25 01:43:28;;;;;;;2.30;1.33;;;20.30;63.20;;;;;;5016574;27;86519;-81
2022/11/25 01:46:23;;;;;;;5.03;1.63;;;20.40;63.10;;;;;;5013575;28;89930;-81
2022/11/25 01:48:56;;;;;;;3.33;2.00;;;20.30;63.20;;;;;;4997369;28;92839;-82
2022/11/25 01:51:34;;;;;;;4.05;1.50;;;20.30;63.10;;;;;;5012058;28;88044;-82
2022/11/25 01:54:02;;;;;;;3.55;1.77;;;20.30;63.10;;;;;;5014638;27;87733;-81
2022/11/25 01:56:32;;;;;;;3.42;1.50;;;20.30;63.10;;;;;;5014986;27;88064;-81
2022/11/25 01:58:58;;;;;;;3.35;1.83;;;20.30;63.10;;;;;;5016411;28;87927;-81
2022/11/25 02:01:23;;;;;;;3.92;1.70;;;20.30;63.30;;;;;;5013494;27;86869;-81
2022/11/25 02:03:52;;;;;;;4.05;1.80;;;20.30;63.20;;;;;;5016321;28;87760;-81
2022/11/25 02:06:24;;;;;;;2.95;1.77;;;20.30;63.20;;;;;;5017642;28;89415;-81
2022/11/25 02:08:52;;;;;;;2.38;1.42;;;20.30;63.20;;;;;;5016703;28;93720;-81
2022/11/25 02:11:19;;;;;;;3.53;1.60;;;20.30;63.20;;;;;;5017452;27;87351;-81
2022/11/25 02:13:47;;;;;;;4.30;1.60;;;20.30;63.30;;;;;;5015240;28;88073;-81
2022/11/25 02:16:13;;;;;;;3.50;1.50;;;20.30;63.30;;;;;;5019519;27;88592;-81
2022/11/25 02:18:39;;;;;;;3.10;1.33;;;20.20;63.30;;;;;;5014137;27;89144;-81
2022/11/25 02:21:06;;;;;;;3.65;1.55;;;20.30;63.50;;;;;;5015843;27;86982;-81
2022/11/25 02:23:37;;;;;;;3.95;1.52;;;20.20;63.40;;;;;;5015740;27;87668;-81
2022/11/25 02:26:04;;;;;;;2.53;1.55;;;20.20;63.40;;;;;;5014402;27;88066;-81
2022/11/25 02:28:31;;;;;;;2.88;1.40;;;20.20;63.50;;;;;;5016263;28;87314;-81
2022/11/25 02:30:58;;;;;;;4.15;1.80;;;20.20;63.80;;;;;;5013639;28;87175;-81
2022/11/25 02:33:24;;;;;;;2.63;1.48;;;20.20;63.60;;;;;;5013620;27;86918;-81
2022/11/25 02:35:55;;;;;;;2.85;1.40;;;20.20;63.50;;;;;;5013073;27;90443;-81
2022/11/25 02:38:41;;;;;;;3.75;1.55;;;20.20;63.50;;;;;;5013904;27;88371;-81
2022/11/25 02:41:13;;;;;;;3.65;1.67;;;20.20;63.50;;;;;;5015182;28;88392;-81
2022/11/25 02:43:40;;;;;;;2.83;1.50;;;20.20;63.40;;;;;;5011953;27;87494;-81
2022/11/25 02:46:10;;;;;;;2.53;1.42;;;20.20;63.50;;;;;;5014405;28;88566;-81
2022/11/25 02:48:38;;;;;;;2.13;1.27;;;20.20;63.40;;;;;;5015893;27;87385;-81
2022/11/25 02:51:05;;;;;;;3.03;1.70;;;20.20;63.30;;;;;;5016150;28;87026;-81
2022/11/25 02:53:31;;;;;;;3.63;1.63;;;20.20;63.20;;;;;;5012676;27;87390;-81
2022/11/25 02:55:57;;;;;;;2.50;1.50;;;20.10;63.30;;;;;;5013348;28;87669;-81
2022/11/25 02:58:22;;;;;;;3.80;1.65;;;20.20;63.50;;;;;;5017537;27;88046;-81
2022/11/25 03:00:48;;;;;;;4.22;1.45;;;20.10;63.30;;;;;;5014710;28;87476;-81
2022/11/25 03:03:14;;;;;;;2.08;1.30;;;20.10;63.50;;;;;;5014531;27;87109;-81
2022/11/25 03:05:40;;;;;;;3.00;1.55;;;20.10;63.30;;;;;;5013337;28;89166;-81
2022/11/25 03:08:06;;;;;;;3.20;1.60;;;20.10;63.40;;;;;;5012085;28;88399;-81
2022/11/25 03:10:32;;;;;;;3.17;1.40;;;20.10;63.50;;;;;;5014834;27;87204;-81
2022/11/25 03:12:58;;;;;;;2.13;1.40;;;20.10;63.30;;;;;;5014187;28;87199;-81
2022/11/25 03:15:24;;;;;;;2.58;1.52;;;20.10;63.30;;;;;;5017463;27;87728;-81
2022/11/25 03:17:50;;;;;;;2.63;1.60;;;20.00;63.40;;;;;;5015469;27;88228;-81
2022/11/25 03:20:16;;;;;;;2.05;1.40;;;20.10;63.30;;;;;;5012057;27;86935;-81
2022/11/25 03:22:43;;;;;;;2.40;1.20;;;20.10;63.20;;;;;;5014241;28;86920;-81
2022/11/25 03:25:10;;;;;;;2.05;1.35;;;20.10;63.20;;;;;;5013097;28;87888;-82
2022/11/25 03:27:37;;;;;;;1.92;1.20;;;20.00;63.20;;;;;;5015792;28;87610;-81
2022/11/25 03:30:05;;;;;;;2.65;1.45;;;20.10;63.40;;;;;;5013693;28;88411;-81
2022/11/25 03:32:31;;;;;;;2.10;1.50;;;20.10;63.40;;;;;;5015046;27;87287;-81
2022/11/25 03:34:56;;;;;;;2.45;1.10;;;20.10;63.50;;;;;;5020157;27;87741;-81
2022/11/25 03:37:22;;;;;;;2.80;1.27;;;20.00;63.30;;;;;;5016259;27;88458;-82
2022/11/25 03:39:48;;;;;;;2.50;1.30;;;20.00;63.30;;;;;;5017785;28;87680;-81
2022/11/25 03:42:13;;;;;;;2.15;1.40;;;20.00;63.50;;;;;;5019345;27;88095;-81
2022/11/25 03:44:39;;;;;;;2.10;1.10;;;20.00;63.40;;;;;;5021059;27;88225;-81
2022/11/25 03:47:04;;;;;;;2.45;1.40;;;20.00;63.10;;;;;;5022135;27;87606;-81
2022/11/25 03:49:30;;;;;;;3.42;1.50;;;20.00;63.10;;;;;;5018847;28;87401;-81
2022/11/25 03:51:56;;;;;;;2.00;1.30;;;20.00;63.20;;;;;;5015670;28;87513;-81
2022/11/25 03:54:21;;;;;;;2.55;1.60;;;20.00;63.20;;;;;;5017842;28;88632;-81
2022/11/25 03:56:47;;;;;;;3.08;1.27;;;20.00;63.20;;;;;;5016767;28;88780;-81
2022/11/25 03:59:12;;;;;;;1.75;1.23;;;20.00;63.30;;;;;;5016106;27;87071;-81
2022/11/25 04:01:38;;;;;;;2.42;1.20;;;20.00;63.20;;;;;;5018488;27;87660;-81
2022/11/25 04:04:04;;;;;;;2.45;1.17;;;20.00;63.10;;;;;;5016342;27;87911;-81
2022/11/25 04:06:30;;;;;;;2.38;1.25;;;20.00;63.10;;;;;;5015828;27;88101;-81
2022/11/25 04:08:57;;;;;;;1.73;1.15;;;20.00;63.40;;;;;;5017867;27;87240;-81
2022/11/25 04:12:45;;;;;;;2.28;1.02;;;20.00;63.20;;;;;;5017435;28;88690;-81
2022/11/25 04:14:11;;;;;;;2.55;1.10;;;19.90;63.30;;;;;;5017253;28;89172;-81
2022/11/25 04:16:37;;;;;;;3.63;1.50;;;19.90;63.20;;;;;;5017176;27;88191;-81
2022/11/25 04:19:02;;;;;;;2.58;1.40;;;19.90;63.30;;;;;;5017872;28;88186;-81
2022/11/25 04:21:28;;;;;;;2.75;1.40;;;19.90;63.50;;;;;;5016508;28;87480;-81
2022/11/25 04:23:54;;;;;;;1.35;1.05;;;19.90;63.50;;;;;;5016498;28;89616;-81
2022/11/25 04:26:19;;;;;;;3.78;1.27;;;19.90;63.50;;;;;;5015852;28;87084;-81
2022/11/25 04:28:45;;;;;;;2.65;1.10;;;19.90;63.40;;;;;;5014518;27;87357;-81
2022/11/25 04:31:10;;;;;;;2.10;1.10;;;19.90;63.30;;;;;;5013965;28;87555;-82
2022/11/25 04:33:36;;;;;;;2.15;1.10;;;19.90;63.20;;;;;;5015710;28;88233;-81
2022/11/25 04:36:02;;;;;;;3.47;1.40;;;19.90;63.20;;;;;;5018547;27;87929;-81
2022/11/25 04:38:28;;;;;;;2.67;1.15;;;19.90;63.30;;;;;;5017174;28;87383;-81
2022/11/25 04:40:53;;;;;;;1.92;1.20;;;19.90;63.30;;;;;;5016037;27;87289;-82
2022/11/25 04:43:19;;;;;;;2.17;1.35;;;19.90;63.40;;;;;;5019903;28;89055;-81
2022/11/25 04:45:46;;;;;;;1.70;1.10;;;19.80;63.40;;;;;;5015756;28;88141;-81
2022/11/25 04:48:12;;;;;;;2.15;1.30;;;19.80;63.50;;;;;;5015296;28;87214;-81
2022/11/25 04:50:37;;;;;;;1.92;1.17;;;19.90;63.30;;;;;;5013312;28;87382;-81
2022/11/25 04:53:03;;;;;;;1.83;1.20;;;19.90;63.40;;;;;;5014419;27;87477;-81
2022/11/25 04:55:29;;;;;;;1.98;1.20;;;19.80;63.30;;;;;;5017135;28;87642;-81
2022/11/25 04:57:55;;;;;;;2.78;1.10;;;19.80;63.30;;;;;;5018020;28;87629;-81
2022/11/25 05:00:20;;;;;;;1.50;1.00;;;19.80;63.30;;;;;;5016043;27;87998;-81
2022/11/25 05:02:46;;;;;;;1.77;1.02;;;19.80;64.20;;;;;;5013314;28;88220;-81
2022/11/25 05:05:12;;;;;;;2.17;1.10;;;19.80;63.30;;;;;;5017041;27;88523;-81
2022/11/25 05:07:37;;;;;;;1.75;1.10;;;19.80;63.60;;;;;;5014563;27;88401;-81
2022/11/25 05:10:04;;;;;;;1.50;0.93;;;19.80;63.30;;;;;;5015613;28;87743;-81
2022/11/25 05:12:30;;;;;;;2.47;1.48;;;19.80;63.40;;;;;;5017152;27;87401;-81
2022/11/25 05:14:56;;;;;;;1.60;0.98;;;19.80;63.50;;;;;;5016924;27;88997;-81
2022/11/25 05:17:25;;;;;;;1.63;0.98;;;19.80;63.50;;;;;;5016680;28;87667;-81
2022/11/25 05:19:51;;;;;;;2.60;1.17;;;19.70;63.40;;;;;;5015511;28;90601;-81
2022/11/25 05:22:20;;;;;;;1.35;1.00;;;19.70;63.40;;;;;;5015853;27;88937;-81
2022/11/25 05:24:46;;;;;;;2.03;1.10;;;19.80;63.60;;;;;;5017327;28;88509;-81
2022/11/25 05:27:12;;;;;;;2.10;1.17;;;19.70;64.30;;;;;;5013763;28;87651;-81
2022/11/25 05:29:38;;;;;;;1.80;1.10;;;19.70;63.40;;;;;;5012371;28;87642;-81
2022/11/25 05:32:04;;;;;;;2.10;1.23;;;19.70;63.40;;;;;;5014388;28;89999;-81
2022/11/25 05:34:30;;;;;;;1.80;1.20;;;19.70;63.40;;;;;;5015750;27;90022;-81
2022/11/25 05:36:55;;;;;;;1.88;1.15;;;19.70;63.40;;;;;;5019069;28;86987;-81
2022/11/25 05:39:21;;;;;;;1.92;1.30;;;19.70;63.40;;;;;;5016990;27;88998;-81
2022/11/25 05:41:47;;;;;;;2.13;1.15;;;19.70;63.40;;;;;;5016010;28;87974;-81
2022/11/25 05:44:12;;;;;;;1.70;1.10;;;19.70;63.20;;;;;;5015463;28;87783;-81
2022/11/25 05:46:38;;;;;;;2.60;1.25;;;19.70;63.20;;;;;;5014186;27;87538;-81
2022/11/25 05:49:04;;;;;;;1.55;1.08;;;19.70;63.40;;;;;;5015711;28;86935;-81
2022/11/25 05:51:30;;;;;;;1.98;1.00;;;19.70;63.30;;;;;;4997717;28;88657;-81
2022/11/25 05:53:56;;;;;;;1.52;1.17;;;19.70;63.30;;;;;;5008331;27;89194;-81
2022/11/25 05:56:22;;;;;;;2.22;1.35;;;19.70;63.30;;;;;;5015442;27;88040;-81
2022/11/25 05:58:48;;;;;;;2.35;1.30;;;19.70;63.30;;;;;;5013453;28;89028;-82
2022/11/25 06:01:15;;;;;;;1.30;0.82;;;19.60;63.30;;;;;;5013813;27;89074;-81
2022/11/25 06:03:41;;;;;;;2.08;1.10;;;19.70;63.30;;;;;;5013762;28;94329;-81
2022/11/25 06:06:08;;;;;;;1.45;1.02;;;19.60;63.30;;;;;;5015357;27;88579;-81
2022/11/25 06:08:35;;;;;;;1.52;1.02;;;19.60;63.10;;;;;;5016045;28;87473;-81
2022/11/25 06:11:08;;;;;;;1.40;0.90;;;19.60;63.30;;;;;;5012335;27;87998;-81
2022/11/25 06:13:34;;;;;;;1.58;0.60;;;19.60;63.30;;;;;;5017505;27;86462;-81
2022/11/25 06:16:06;;;;;;;2.53;1.20;;;19.60;63.30;;;;;;5017741;27;87846;-81
2022/11/25 06:18:31;;;;;;;3.03;1.30;;;19.60;63.30;;;;;;5012346;28;88861;-81
2022/11/25 06:20:58;;;;;;;2.75;1.35;;;19.60;63.40;;;;;;5011797;28;89201;-81
2022/11/25 06:23:25;;;;;;;1.98;1.08;;;19.60;63.10;;;;;;5014211;27;89382;-81
2022/11/25 06:25:51;;;;;;;1.90;0.88;;;19.60;63.10;;;;;;5016025;28;87332;-81
2022/11/25 06:28:16;;;;;;;1.70;1.10;;;19.60;63.00;;;;;;5016914;28;87640;-80
2022/11/25 06:30:42;;;;;;;1.85;1.08;;;19.60;63.20;;;;;;5013858;28;87877;-81
2022/11/25 06:33:07;;;;;;;2.22;1.13;;;19.60;63.30;;;;;;5011550;28;88282;-81
2022/11/25 06:35:33;;;;;;;2.03;1.00;;;19.60;63.20;;;;;;5014553;27;87286;-81
2022/11/25 06:37:58;;;;;;;1.77;1.00;;;19.50;63.20;;;;;;5014226;28;86852;-81
2022/11/25 06:40:24;;;;;;;1.50;1.10;;;19.60;63.20;;;;;;5015546;27;88100;-81
2022/11/25 06:42:50;;;;;;;2.22;1.23;;;19.50;63.30;;;;;;5016084;28;87919;-82
2022/11/25 06:45:15;;;;;;;2.17;1.23;;;19.50;63.20;;;;;;5013935;28;88343;-81
2022/11/25 06:47:41;;;;;;;1.88;0.90;;;19.50;63.20;;;;;;5014060;27;87837;-81
2022/11/25 06:50:07;;;;;;;1.77;1.02;;;19.50;63.10;;;;;;5014232;27;88600;-81
2022/11/25 06:52:33;;;;;;;1.80;1.10;;;19.50;63.20;;;;;;5004091;28;87813;-82
2022/11/25 06:54:58;;;;;;;1.58;1.08;;;19.50;63.20;;;;;;5015465;28;87608;-81
2022/11/25 06:57:24;;;;;;;2.05;1.10;;;19.60;63.20;;;;;;5014452;27;87441;-81
2022/11/25 06:59:50;;;;;;;1.88;1.02;;;19.60;63.10;;;;;;5016047;28;87674;-81
2022/11/25 07:02:16;;;;;;;4.00;1.40;;;19.60;62.60;;;;;;5016054;27;87733;-82
2022/11/25 07:04:42;;;;;;;1.75;1.08;;;19.60;62.90;;;;;;5017465;27;87419;-82
2022/11/25 07:07:07;;;;;;;1.90;1.30;;;19.60;63.70;;;;;;5021849;28;87882;-82
2022/11/25 07:09:33;;;;;;;2.13;1.10;;;19.60;63.10;;;;;;5019712;27;89324;-82
2022/11/25 07:11:59;;;;;;;2.20;1.10;;;19.80;63.10;;;;;;5028059;28;89265;-82
2022/11/25 07:14:25;;;;;;;3.08;1.30;;;20.00;62.80;;;;;;5019935;27;88547;-82
2022/11/25 07:16:51;;;;;;;2.17;1.10;;;20.20;62.40;;;;;;5020853;27;86931;-81
2022/11/25 07:19:17;;;;;;;4.70;1.17;;;20.50;62.20;;;;;;5019829;28;88067;-81
2022/11/25 07:21:44;;;;;;;4.30;0.98;;;20.60;61.70;;;;;;5020360;28;88845;-82
2022/11/25 07:24:12;;;;;;;3.38;1.10;;;20.70;61.60;;;;;;5020376;27;87309;-82
2022/11/25 07:26:39;;;;;;;5.55;1.35;;;20.80;61.60;;;;;;5018955;28;86918;-81
2022/11/25 07:29:11;;;;;;;2.20;0.90;;;20.90;61.40;;;;;;5018437;27;87822;-81
2022/11/25 07:31:40;;;;;;;3.65;1.17;;;20.90;61.40;;;;;;5016537;28;89226;-81
2022/11/25 07:34:16;;;;;;;4.65;1.20;;;20.90;61.20;;;;;;5016270;28;88623;-81
2022/11/25 07:36:42;;;;;;;2.63;1.10;;;21.00;61.50;;;;;;5018336;28;91018;-81
2022/11/25 07:39:13;;;;;;;1.10;0.80;;;21.00;61.50;;;;;;5019378;27;88352;-81
2022/11/25 07:41:40;;;;;;;1.55;1.00;;;21.00;61.70;;;;;;5017915;28;90458;-82
2022/11/25 07:44:07;;;;;;;3.17;1.30;;;20.90;61.90;;;;;;5021182;27;87327;-82
2022/11/25 07:46:38;;;;;;;2.35;1.23;;;20.90;62.00;;;;;;5015878;28;88372;-82
2022/11/25 07:49:06;;;;;;;2.78;1.08;;;20.90;62.10;;;;;;5013764;28;88365;-82
2022/11/25 07:51:38;;;;;;;3.43;1.33;;;20.90;62.10;;;;;;5015314;27;88257;-82
2022/11/25 07:54:06;;;;;;;2.03;0.80;;;20.80;62.00;;;;;;5015725;27;87682;-82
2022/11/25 07:56:36;;;;;;;2.30;1.17;;;20.80;62.20;;;;;;5014508;27;88572;-82
2022/11/25 07:59:02;;;;;;;1.52;0.80;;;20.80;62.00;;;;;;5015255;28;88980;-82
2022/11/25 08:01:28;;;;;;;2.15;1.20;;;20.80;62.10;;;;;;5015158;27;88580;-82
2022/11/25 08:03:54;;;;;;;4.43;1.45;;;20.90;62.00;;;;;;5013371;28;87148;-81
2022/11/25 08:06:24;;;;;;;3.03;1.10;;;21.00;61.80;;;;;;5015077;27;87093;-82
2022/11/25 08:08:54;;;;;;;4.20;1.30;;;21.00;61.80;;;;;;5016841;27;88422;-81
2022/11/25 08:11:30;;;;;;;5.60;1.60;;;21.00;62.00;;;;;;5014828;27;87361;-82
2022/11/25 08:13:57;;;;;;;2.83;1.45;;;20.90;61.80;;;;;;5015764;28;87455;-82
2022/11/25 08:16:31;;;;;;;3.30;1.42;;;20.90;62.20;;;;;;5015842;27;87512;-82
2022/11/25 08:18:59;;;;;;;2.80;1.30;;;20.90;62.10;;;;;;4963756;27;88581;-81
2022/11/25 08:21:25;;;;;;;3.88;1.58;;;20.90;62.40;;;;;;5015930;28;87376;-82
2022/11/25 08:23:51;;;;;;;3.38;1.23;;;21.00;62.00;;;;;;5016083;27;88305;-81
2022/11/25 08:26:30;;;;;;;3.55;1.45;;;20.90;62.10;;;;;;5013595;27;87213;-82
2022/11/25 08:28:56;;;;;;;8.13;1.65;;;20.90;62.40;;;;;;5016347;27;90065;-82
2022/11/25 08:31:35;;;;;;;8.35;1.65;;;20.90;62.10;;;;;;5015554;27;87862;-81
2022/11/25 08:34:01;;;;;;;3.85;1.30;;;20.90;61.20;;;;;;5016923;28;87554;-81
2022/11/25 08:36:28;;;;;;;4.70;1.45;;;20.90;61.50;;;;;;5015176;28;87247;-81
2022/11/25 08:38:56;;;;;;;4.60;1.25;;;20.80;61.80;;;;;;5013877;27;88258;-82
2022/11/25 08:41:35;;;;;;;3.25;1.48;;;20.80;62.10;;;;;;5014663;27;88559;-81
2022/11/25 08:44:03;;;;;;;5.20;1.52;;;20.70;62.10;;;;;;5015571;27;87078;-82
2022/11/25 08:46:32;;;;;;;3.25;1.25;;;20.70;62.50;;;;;;5015377;28;88142;-82
2022/11/25 08:48:59;;;;;;;3.38;1.40;;;20.70;62.40;;;;;;5016674;28;89176;-81
2022/11/25 08:51:28;;;;;;;7.78;1.83;;;20.70;62.40;;;;;;5016305;27;88329;-81
2022/11/25 08:53:54;;;;;;;4.35;1.55;;;20.70;62.60;;;;;;5015518;28;86929;-82
2022/11/25 08:56:22;;;;;;;6.32;1.40;;;20.60;62.60;;;;;;5016252;27;87822;-82
2022/11/25 08:58:48;;;;;;;10.63;1.25;;;20.60;62.50;;;;;;5014197;27;87641;-81
2022/11/25 09:01:15;;;;;;;6.10;1.60;;;20.60;62.50;;;;;;5019679;28;87141;-82
2022/11/25 09:03:45;;;;;;;3.42;1.50;;;20.60;62.40;;;;;;5014584;28;87311;-82
2022/11/25 09:06:11;;;;;;;8.30;1.77;;;20.60;62.60;;;;;;5016406;27;91111;-82
2022/11/25 09:08:38;;;;;;;3.15;1.23;;;20.60;62.50;;;;;;5014967;28;88246;-81
2022/11/25 09:11:04;;;;;;;5.80;1.70;;;20.60;62.40;;;;;;5013551;27;87832;-81
2022/11/25 09:13:30;;;;;;;5.07;1.60;;;20.70;62.70;;;;;;5014875;28;88472;-81
2022/11/25 09:15:56;;;;;;;5.78;1.58;;;20.70;62.20;;;;;;5017164;28;87424;-81
2022/11/25 09:18:25;;;;;;;4.10;2.03;;;20.70;62.40;;;;;;5015778;27;87939;-81
2022/11/25 09:20:51;;;;;;;5.63;1.83;;;20.80;61.90;;;;;;5014088;27;87916;-82
2022/11/25 09:23:18;;;;;;;6.78;1.95;;;20.80;62.00;;;;;;5016660;27;87349;-82
2022/11/25 09:25:54;;;;;;;10.88;4.10;;;20.80;62.20;;;;;;5012561;28;87698;-82
2022/11/25 09:28:21;;;;;;;8.15;2.63;;;20.70;61.90;;;;;;5015522;27;87629;-82
2022/11/25 09:30:49;;;;;;;10.73;2.75;;;20.70;61.90;;;;;;5012998;28;89488;-82
2022/11/25 09:33:15;;;;;;;16.20;3.28;;;20.80;62.70;;;;;;5014306;28;87275;-81
2022/11/25 09:35:40;;;;;;;14.93;3.40;;;20.80;62.10;;;;;;5012407;27;87603;-81
2022/11/25 09:38:06;;;;;;;17.40;3.30;;;20.80;62.00;;;;;;5013190;27;88365;-82
2022/11/25 09:40:42;;;;;;;11.63;3.20;;;20.80;62.20;;;;;;5012954;27;89840;-81
2022/11/25 09:46:44;;;;;;;14.07;3.92;;;20.80;62.10;;;;;;4995531;28;90449;-82
2022/11/25 09:49:10;;;;;;;12.23;3.20;;;20.80;62.00;;;;;;4998062;28;88536;-82
2022/11/25 09:51:45;;;;;;;21.40;4.28;;;20.90;61.60;;;;;;5014266;27;87878;-82
2022/11/25 09:54:20;;;;;;;16.67;4.70;;;20.80;62.20;;;;;;5015387;27;87096;-81
2022/11/25 09:56:54;;;;;;;16.02;4.38;;;20.80;62.20;;;;;;5014581;27;86900;-82
2022/11/25 09:59:28;;;;;;;14.10;4.00;;;20.80;62.50;;;;;;5016579;27;87927;-82
2022/11/25 10:02:12;;;;;;;13.25;4.30;;;20.80;62.40;;;;;;5013737;27;88036;-82
2022/11/25 10:04:57;;;;;;;12.75;4.00;;;20.80;62.30;;;;;;5010383;28;88382;-82
2022/11/25 10:07:33;;;;;;;15.98;4.32;;;20.80;62.60;;;;;;5013373;28;87376;-82
2022/11/25 10:10:02;;;;;;;20.65;4.20;;;20.80;62.70;;;;;;5014005;28;88463;-82
2022/11/25 10:12:33;;;;;;;13.93;4.13;;;20.80;62.60;;;;;;5012917;27;92321;-83
2022/11/25 10:15:14;;;;;;;13.63;4.00;;;20.90;62.30;;;;;;5011429;28;87335;-82
2022/11/25 10:17:48;;;;;;;15.27;3.85;;;20.90;62.30;;;;;;5010586;27;87063;-82
2022/11/25 10:20:22;;;;;;;17.20;4.45;;;20.90;62.40;;;;;;5012683;28;88958;-82
2022/11/25 10:22:56;;;;;;;20.27;5.53;;;20.90;62.40;;;;;;5011519;28;87462;-82
2022/11/25 10:25:30;;;;;;;18.33;4.43;;;20.80;62.50;;;;;;5016962;27;87510;-82
2022/11/25 10:28:04;;;;;;;18.80;5.18;;;20.80;62.60;;;;;;5014750;28;87546;-82
2022/11/25 10:30:39;;;;;;;14.18;3.78;;;20.80;62.40;;;;;;5012607;27;89442;-82
2022/11/25 10:33:22;;;;;;;15.93;4.20;;;20.80;62.70;;;;;;5012500;27;89185;-82
2022/11/25 10:36:12;;;;;;;12.40;3.95;;;20.80;62.70;;;;;;5010855;27;87425;-82
2022/11/25 10:38:49;;;;;;;22.38;5.03;;;20.90;62.60;;;;;;5015861;27;87655;-82
2022/11/25 10:41:17;;;;;;;15.80;4.47;;;21.00;62.40;;;;;;5014803;27;88591;-82
2022/11/25 10:43:46;;;;;;;13.10;3.72;;;21.00;62.00;;;;;;5011656;28;87815;-82
2022/11/25 10:46:17;;;;;;;15.07;3.67;;;20.90;62.20;;;;;;5015171;28;86965;-82
2022/11/25 10:49:05;;;;;;;14.80;4.40;;;21.00;62.60;;;;;;4995372;28;91639;-82
2022/11/25 10:51:39;;;;;;;17.23;4.22;;;20.90;62.40;;;;;;5014186;27;91815;-82
2022/11/25 10:54:26;;;;;;;15.73;4.57;;;20.90;62.60;;;;;;5013810;27;88496;-82
2022/11/25 10:56:53;;;;;;;15.80;4.18;;;20.90;62.90;;;;;;5017143;27;88116;-82
2022/11/25 10:59:38;;;;;;;11.52;4.28;;;20.90;63.00;;;;;;5015325;27;87652;-82
2022/11/25 11:02:12;;;;;;;17.02;4.47;;;20.90;63.00;;;;;;5013403;28;90560;-82
2022/11/25 11:04:52;;;;;;;16.85;5.13;;;20.90;63.20;;;;;;5017701;27;87716;-82
2022/11/25 11:07:17;;;;;;;18.80;4.72;;;21.00;61.90;;;;;;5012735;28;87251;-82
2022/11/25 11:09:44;;;;;;;19.67;4.40;;;21.10;61.50;;;;;;5015273;28;87274;-82
2022/11/25 11:12:20;;;;;;;14.30;4.20;;;21.10;62.70;;;;;;5015634;27;87787;-82
2022/11/25 11:14:46;;;;;;;19.75;4.78;;;21.00;62.20;;;;;;5014922;27;86932;-82
2022/11/25 11:17:41;;;;;;;15.25;4.20;;;21.00;62.30;;;;;;5013538;27;87608;-82
2022/11/25 11:20:06;;;;;;;14.95;5.20;;;21.10;62.10;;;;;;4942693;28;87291;-82
2022/11/25 11:22:43;;;;;;;24.40;5.03;;;21.10;61.90;;;;;;4940588;28;89693;-82
2022/11/25 11:25:23;;;;;;;72.32;14.48;;;21.00;61.90;;;;;;4942352;28;89911;-82
2022/11/25 11:27:49;;;;;;;20.35;5.18;;;20.80;61.80;;;;;;4942226;28;88063;-82
2022/11/25 11:30:22;;;;;;;25.25;6.20;;;20.80;62.60;;;;;;4942382;28;87449;-82
2022/11/25 11:32:56;;;;;;;21.13;6.07;;;20.70;62.60;;;;;;4941965;28;87967;-82
2022/11/25 11:35:31;;;;;;;23.15;6.30;;;20.60;62.90;;;;;;4942587;28;87643;-79
2022/11/25 11:38:15;;;;;;;25.55;7.22;;;20.60;62.80;;;;;;4942719;28;87477;-79
2022/11/25 11:40:46;;;;;;;20.80;6.40;;;20.50;63.80;;;;;;4942936;28;87051;-79
2022/11/25 11:43:33;;;;;;;29.92;7.38;;;20.50;63.00;;;;;;4943010;28;88454;-82
2022/11/25 11:46:44;;;;;;;27.67;6.95;;;20.50;63.10;;;;;;4942000;28;91853;-81
2022/11/25 11:49:36;;;;;;;25.90;7.28;;;20.50;63.30;;;;;;4941759;28;88441;-81
2022/11/25 11:52:30;;;;;;;29.75;7.53;;;20.40;63.40;;;;;;4945290;28;92424;-82
2022/11/25 11:55:12;;;;;;;26.90;6.82;;;20.40;63.40;;;;;;4945465;28;93066;-81
2022/11/25 11:57:43;;;;;;;26.98;6.60;;;20.40;63.30;;;;;;5013381;28;88348;-81
2022/11/25 12:00:13;;;;;;;28.35;7.20;;;20.40;64.00;;;;;;5016558;28;87552;-81
2022/11/25 12:02:45;;;;;;;24.67;7.53;;;20.40;63.40;;;;;;5015576;27;89070;-81
2022/11/25 12:05:10;;;;;;;25.13;7.82;;;20.40;63.40;;;;;;5019517;27;89532;-81
2022/11/25 12:07:39;;;;;;;24.27;7.20;;;20.40;63.40;;;;;;5018818;27;88728;-81
2022/11/25 12:10:13;;;;;;;24.30;7.60;;;20.40;63.60;;;;;;5016795;28;87340;-81
2022/11/25 12:12:50;;;;;;;23.25;7.50;;;20.40;63.40;;;;;;5017008;28;87779;-81
2022/11/25 12:15:21;;;;;;;28.25;7.60;;;20.40;63.50;;;;;;5016180;27;89344;-82
2022/11/25 12:18:27;;;;;;;29.27;7.00;;;20.40;63.50;;;;;;5016117;27;89319;-81
2022/11/25 12:21:05;;;;;;;29.50;7.40;;;20.40;63.50;;;;;;4925773;28;87336;-81
2022/11/25 12:24:07;;;;;;;21.73;6.90;;;20.40;63.50;;;;;;4925332;28;87643;-81
2022/11/25 12:26:37;;;;;;;27.52;8.07;;;20.40;63.60;;;;;;4841494;29;91793;-81
2022/11/25 12:29:09;;;;;;;24.40;7.55;;;20.40;63.60;;;;;;4844838;29;88119;-81
2022/11/25 12:31:44;;;;;;;20.27;7.25;;;20.40;63.60;;;;;;4844230;29;87282;-81
2022/11/25 12:34:47;;;;;;;21.92;6.95;;;20.40;63.60;;;;;;4846611;29;88077;-82
2022/11/25 12:37:26;;;;;;;21.60;6.32;;;20.40;63.60;;;;;;4829927;29;92803;-81
2022/11/25 12:40:04;;;;;;;21.90;6.63;;;20.40;63.50;;;;;;4831035;29;87874;-81
2022/11/25 12:42:32;;;;;;;22.10;6.43;;;20.40;63.50;;;;;;4829666;29;88358;-81
2022/11/25 12:45:20;;;;;;;26.60;7.70;;;20.40;63.50;;;;;;4830093;28;87801;-81
2022/11/25 12:47:46;;;;;;;22.70;6.57;;;20.40;63.60;;;;;;4829686;29;92504;-81
2022/11/25 12:50:34;;;;;;;28.15;7.15;;;20.40;63.70;;;;;;4830011;29;87788;-82
2022/11/25 12:53:22;;;;;;;22.35;7.07;;;20.40;63.50;;;;;;4830018;29;87705;-80
2022/11/25 12:55:47;;;;;;;21.52;7.10;;;20.40;63.50;;;;;;4830205;29;87758;-80
2022/11/25 12:58:28;;;;;;;21.92;7.50;;;20.40;63.60;;;;;;4857121;28;87829;-80
2022/11/25 13:00:56;;;;;;;19.67;6.53;;;20.40;63.40;;;;;;4896126;28;91743;-80